createdAt,value
2018-03-29T00:02:16.139Z,229.20
2018-03-29T00:04:44.603Z,244.73
2018-03-29T00:07:13.057Z,241.20
2018-03-29T00:09:41.564Z,261.93
2018-03-29T00:12:10.053Z,240.50
2018-03-29T00:14:38.526Z,246.83
2018-03-29T00:17:07.000Z,263.80
2018-03-29T00:19:35.487Z,278.30
2018-03-29T00:22:03.988Z,269.20
2018-03-29T00:24:32.972Z,254.50
2018-03-29T00:27:02.442Z,275.10
2018-03-29T00:29:32.970Z,271.03
2018-03-29T00:32:02.259Z,278.93
2018-03-29T00:34:31.755Z,294.73
2018-03-29T00:37:02.129Z,264.17
2018-03-29T00:39:32.004Z,281.57
2018-03-29T00:42:01.990Z,285.57
2018-03-29T00:44:31.684Z,286.80
2018-03-29T00:47:01.324Z,249.03
2018-03-29T00:49:31.268Z,227.67
2018-03-29T00:51:59.963Z,256.27
2018-03-29T00:54:30.381Z,260.23
2018-03-29T00:56:59.216Z,269.67
2018-03-29T00:59:30.153Z,281.17
2018-03-29T01:01:58.756Z,258.30
2018-03-29T01:04:27.508Z,302.67
2018-03-29T01:06:56.321Z,231.90
2018-03-29T01:09:25.128Z,242.27
2018-03-29T01:11:54.823Z,245.67
2018-03-29T01:14:24.275Z,268.53
2018-03-29T01:16:54.174Z,243.37
2018-03-29T01:19:26.106Z,218.53
2018-03-29T01:21:54.874Z,199.90
2018-03-29T01:24:24.124Z,228.37
2018-03-29T01:26:53.057Z,218.47
2018-03-29T01:29:21.830Z,219.70
2018-03-29T01:31:50.814Z,223.43
2018-03-29T01:34:19.556Z,232.47
2018-03-29T01:36:48.738Z,216.17
2018-03-29T01:39:18.995Z,202.33
2018-03-29T01:41:48.822Z,221.60
2018-03-29T01:44:18.871Z,235.93
2018-03-29T01:46:47.817Z,217.37
2018-03-29T01:49:16.722Z,243.63
2018-03-29T01:51:45.396Z,247.53
2018-03-29T01:54:14.310Z,250.97
2018-03-29T01:56:43.352Z,257.33
2018-03-29T01:59:13.240Z,268.13
2018-03-29T02:01:42.892Z,281.60
2018-03-29T02:04:11.423Z,301.90
2018-03-29T02:06:40.581Z,258.80
2018-03-29T02:09:10.065Z,325.67
2018-03-29T02:11:38.986Z,234.60
2018-03-29T02:14:09.877Z,241.17
2018-03-29T02:16:38.327Z,241.77
2018-03-29T02:19:06.833Z,221.90
2018-03-29T02:21:35.287Z,245.20
2018-03-29T02:24:03.742Z,266.40
2018-03-29T02:26:32.228Z,250.87
2018-03-29T02:29:01.101Z,286.47
2018-03-29T02:31:29.562Z,276.03
2018-03-29T02:33:58.014Z,271.53
2018-03-29T02:36:26.974Z,286.07
2018-03-29T02:38:55.836Z,287.90
2018-03-29T02:41:24.858Z,320.57
2018-03-29T02:43:54.442Z,279.63
2018-03-29T02:46:24.659Z,295.37
2018-03-29T02:48:53.122Z,274.27
2018-03-29T02:51:21.565Z,294.40
2018-03-29T02:53:50.172Z,285.57
2018-03-29T02:56:18.621Z,286.63
2018-03-29T02:58:47.075Z,290.30
2018-03-29T03:01:15.529Z,295.20
2018-03-29T03:03:44.409Z,316.83
2018-03-29T03:06:14.262Z,272.73
2018-03-29T03:08:42.807Z,314.00
2018-03-29T03:11:11.870Z,290.57
2018-03-29T03:13:40.430Z,262.30
2018-03-29T03:16:10.919Z,252.50
2018-03-29T03:18:39.472Z,267.70
2018-03-29T03:21:08.711Z,267.77
2018-03-29T03:23:37.603Z,282.93
2018-03-29T03:26:06.482Z,276.17
2018-03-29T03:28:34.965Z,265.07
2018-03-29T03:31:03.538Z,260.30
2018-03-29T03:33:31.988Z,250.77
2018-03-29T03:36:04.604Z,216.57
2018-03-29T03:38:33.077Z,238.83
2018-03-29T03:41:01.568Z,223.90
2018-03-29T03:43:30.097Z,233.40
2018-03-29T03:45:59.045Z,206.40
2018-03-29T03:48:27.533Z,200.60
2018-03-29T03:50:56.002Z,194.87
2018-03-29T03:53:24.450Z,164.73
2018-03-29T03:55:52.903Z,156.73
2018-03-29T03:58:21.786Z,151.13
2018-03-29T04:00:50.232Z,150.63
2018-03-29T04:03:18.715Z,122.77
2018-03-29T04:05:47.183Z,128.97
2018-03-29T04:08:15.687Z,119.00
2018-03-29T04:10:44.144Z,108.27
2018-03-29T04:13:12.738Z,90.17
2018-03-29T04:15:41.185Z,83.20
2018-03-29T04:18:10.094Z,80.73
2018-03-29T04:20:39.743Z,84.23
2018-03-29T04:23:10.166Z,67.53
2018-03-29T04:25:41.943Z,60.27
2018-03-29T04:28:10.720Z,56.33
2018-03-29T04:30:40.059Z,56.37
2018-03-29T04:33:08.926Z,58.67
2018-03-29T04:35:38.068Z,49.17
2018-03-29T04:38:08.218Z,49.97
2018-03-29T04:40:37.615Z,45.60
2018-03-29T04:43:06.756Z,53.10
2018-03-29T04:45:37.354Z,54.47
2018-03-29T04:48:06.230Z,51.80
2018-03-29T04:50:36.173Z,53.70
2018-03-29T04:53:04.669Z,49.33
2018-03-29T04:55:33.608Z,49.97
2018-03-29T04:58:07.032Z,42.13
2018-03-29T05:00:35.500Z,46.50
2018-03-29T05:03:03.962Z,41.87
2018-03-29T05:05:32.464Z,45.37
2018-03-29T05:08:01.038Z,38.30
2018-03-29T05:10:29.615Z,39.47
2018-03-29T05:12:58.089Z,35.57
2018-03-29T05:15:27.781Z,38.33
2018-03-29T05:18:00.720Z,41.00
2018-03-29T05:20:29.182Z,34.27
2018-03-29T05:22:57.783Z,37.40
2018-03-29T05:25:26.276Z,36.77
2018-03-29T05:27:57.139Z,28.23
2018-03-29T05:30:25.965Z,23.37
2018-03-29T05:32:54.424Z,17.80
2018-03-29T05:35:22.878Z,18.63
2018-03-29T05:37:51.348Z,19.77
2018-03-29T05:40:20.024Z,11.97
2018-03-29T05:42:48.525Z,11.30
2018-03-29T05:45:17.470Z,10.73
2018-03-29T05:47:45.950Z,10.90
2018-03-29T05:50:14.384Z,8.60
2018-03-29T05:52:42.910Z,10.70
2018-03-29T05:55:12.117Z,8.20
2018-03-29T05:57:41.452Z,8.43
2018-03-29T06:00:10.402Z,8.93
2018-03-29T06:02:38.933Z,10.40
2018-03-29T06:05:08.653Z,12.30
2018-03-29T06:07:37.772Z,11.77
2018-03-29T06:10:06.261Z,10.13
2018-03-29T06:12:34.694Z,11.00
2018-03-29T06:15:08.645Z,9.57
2018-03-29T06:17:37.143Z,9.77
2018-03-29T06:20:05.596Z,9.40
2018-03-29T06:22:34.211Z,9.13
2018-03-29T06:25:02.651Z,9.50
2018-03-29T06:27:31.532Z,11.77
2018-03-29T06:30:00.475Z,8.23
2018-03-29T06:32:28.950Z,8.50
2018-03-29T06:34:57.429Z,7.60
2018-03-29T06:37:25.899Z,7.97
2018-03-29T06:39:54.366Z,8.60
2018-03-29T06:42:22.814Z,7.93
2018-03-29T06:44:51.365Z,7.10
2018-03-29T06:47:19.838Z,7.40
2018-03-29T06:49:48.328Z,6.97
2018-03-29T06:52:17.116Z,6.23
2018-03-29T06:54:45.593Z,6.27
2018-03-29T06:57:14.078Z,6.27
2018-03-29T06:59:43.062Z,6.03
2018-03-29T07:02:12.045Z,5.57
2018-03-29T07:04:40.755Z,5.67
2018-03-29T07:07:10.235Z,4.77
2018-03-29T07:09:38.682Z,4.70
2018-03-29T07:12:07.708Z,4.40
2018-03-29T07:14:36.226Z,4.37
2018-03-29T07:17:05.650Z,4.50
2018-03-29T07:19:34.094Z,4.03
2018-03-29T07:22:03.223Z,3.90
2018-03-29T07:24:31.976Z,4.07
2018-03-29T07:27:01.433Z,4.30
2018-03-29T07:29:30.367Z,4.10
2018-03-29T07:32:00.096Z,3.60
2018-03-29T07:34:29.791Z,3.90
2018-03-29T07:36:58.589Z,4.07
2018-03-29T07:39:27.867Z,4.20
2018-03-29T07:41:57.985Z,4.07
2018-03-29T07:44:28.290Z,3.70
2018-03-29T07:46:57.851Z,3.83
2018-03-29T07:49:27.358Z,3.57
2018-03-29T07:51:56.620Z,5.17
2018-03-29T07:54:26.304Z,5.00
2018-03-29T07:56:56.709Z,3.90
2018-03-29T07:59:25.271Z,3.93
2018-03-29T08:01:53.625Z,3.57
2018-03-29T08:04:21.991Z,3.10
2018-03-29T08:06:50.338Z,3.33
2018-03-29T08:09:18.682Z,4.40
2018-03-29T08:11:47.067Z,3.27
2018-03-29T08:14:15.435Z,4.90
2018-03-29T08:16:43.813Z,2.80
2018-03-29T08:19:12.173Z,2.90
2018-03-29T08:21:40.518Z,3.60
2018-03-29T08:24:09.253Z,2.90
2018-03-29T08:26:37.721Z,3.10
2018-03-29T08:29:06.084Z,2.83
2018-03-29T08:31:34.498Z,2.90
2018-03-29T08:34:02.872Z,2.80
2018-03-29T08:36:31.267Z,3.20
2018-03-29T08:38:59.613Z,2.80
2018-03-29T08:41:28.018Z,2.57
2018-03-29T08:43:56.379Z,2.40
2018-03-29T08:46:24.768Z,3.00
2018-03-29T08:48:53.132Z,2.73
2018-03-29T08:51:21.478Z,2.80
2018-03-29T08:53:50.309Z,3.20
2018-03-29T08:56:18.666Z,3.93
2018-03-29T08:58:47.003Z,3.10
2018-03-29T09:01:15.347Z,6.33
2018-03-29T09:03:43.708Z,3.47
2018-03-29T09:06:12.117Z,3.87
2018-03-29T09:08:40.461Z,9.23
2018-03-29T09:11:08.844Z,2.53
2018-03-29T09:13:37.198Z,3.63
2018-03-29T09:16:05.923Z,3.23
2018-03-29T09:18:34.303Z,3.20
2018-03-29T09:21:02.701Z,5.57
2018-03-29T09:23:31.035Z,3.47
2018-03-29T09:25:59.427Z,3.90
2018-03-29T09:28:27.828Z,4.43
2018-03-29T09:30:56.184Z,4.83
2018-03-29T09:33:24.547Z,3.23
2018-03-29T09:35:52.919Z,4.37
2018-03-29T09:38:21.658Z,5.27
2018-03-29T09:40:50.124Z,4.73
2018-03-29T09:43:18.491Z,5.40
2018-03-29T09:45:46.857Z,4.40
2018-03-29T09:48:15.257Z,4.90
2018-03-29T09:50:43.610Z,4.20
2018-03-29T09:53:11.948Z,3.80
2018-03-29T09:55:40.309Z,5.37
2018-03-29T09:58:08.688Z,4.70
2018-03-29T10:00:37.025Z,4.03
2018-03-29T10:03:10.400Z,4.60
2018-03-29T10:05:39.151Z,3.60
2018-03-29T10:08:06.850Z,3.60
2018-03-29T10:10:34.894Z,3.17
2018-03-29T10:13:02.546Z,3.30
2018-03-29T10:15:30.198Z,3.50
2018-03-29T10:17:57.849Z,5.43
2018-03-29T10:20:25.487Z,3.40
2018-03-29T10:22:53.152Z,3.10
2018-03-29T10:25:20.818Z,4.43
2018-03-29T10:27:48.554Z,3.30
2018-03-29T10:30:16.583Z,6.77
2018-03-29T10:32:44.295Z,3.77
2018-03-29T10:35:12.322Z,4.37
2018-03-29T10:37:39.961Z,15.60
2018-03-29T10:40:08.006Z,3.13
2018-03-29T10:42:36.029Z,2.93
2018-03-29T10:45:03.754Z,10.63
2018-03-29T10:47:31.698Z,2.80
2018-03-29T10:49:59.736Z,3.10
2018-03-29T10:52:27.391Z,3.03
2018-03-29T10:54:55.136Z,6.57
2018-03-29T10:57:22.855Z,3.70
2018-03-29T10:59:50.898Z,3.80
2018-03-29T11:02:18.555Z,8.17
2018-03-29T11:04:46.255Z,4.50
2018-03-29T11:07:14.282Z,3.37
2018-03-29T11:09:42.016Z,2.57
2018-03-29T11:12:09.748Z,3.23
2018-03-29T11:14:37.796Z,2.77
2018-03-29T11:17:05.448Z,5.57
2018-03-29T11:19:33.163Z,4.70
2018-03-29T11:22:01.295Z,7.53
2018-03-29T11:24:28.975Z,3.00
2018-03-29T11:26:56.604Z,2.80
2018-03-29T11:31:58.408Z,3.10
2018-03-29T11:34:26.038Z,2.90
2018-03-29T11:36:53.706Z,3.97
2018-03-29T11:39:21.378Z,4.13
2018-03-29T11:41:49.039Z,3.83
2018-03-29T11:44:16.687Z,5.60
2018-03-29T11:46:44.339Z,3.40
2018-03-29T11:49:11.986Z,4.30
2018-03-29T11:51:39.639Z,9.80
2018-03-29T11:54:07.324Z,4.07
2018-03-29T11:56:34.994Z,3.20
2018-03-29T11:59:02.631Z,6.43
2018-03-29T12:01:30.299Z,3.33
2018-03-29T12:03:57.951Z,7.47
2018-03-29T12:06:25.603Z,3.60
2018-03-29T12:08:53.672Z,3.33
2018-03-29T12:11:21.316Z,4.03
2018-03-29T12:13:48.992Z,6.87
2018-03-29T12:16:17.050Z,4.20
2018-03-29T12:18:45.095Z,4.37
2018-03-29T12:21:12.740Z,4.27
2018-03-29T12:23:40.403Z,3.90
2018-03-29T12:26:08.131Z,6.73
2018-03-29T12:28:35.807Z,4.00
2018-03-29T12:31:03.468Z,4.23
2018-03-29T12:33:31.104Z,4.13
2018-03-29T12:35:59.127Z,3.90
2018-03-29T12:38:26.849Z,3.70
2018-03-29T12:40:54.511Z,4.10
2018-03-29T12:43:22.146Z,4.07
2018-03-29T12:45:49.827Z,3.80
2018-03-29T12:48:17.887Z,3.90
2018-03-29T12:50:45.547Z,3.20
2018-03-29T12:53:13.202Z,4.60
2018-03-29T12:55:41.581Z,7.53
2018-03-29T12:58:11.049Z,3.90
2018-03-29T13:00:38.786Z,4.93
2018-03-29T13:03:06.430Z,10.50
2018-03-29T13:05:34.096Z,5.50
2018-03-29T13:08:02.142Z,5.17
2018-03-29T13:10:29.830Z,6.90
2018-03-29T13:12:57.432Z,5.43
2018-03-29T13:15:25.104Z,5.70
2018-03-29T13:17:52.846Z,6.23
2018-03-29T13:20:20.599Z,9.70
2018-03-29T13:22:48.340Z,12.33
2018-03-29T13:25:16.475Z,6.57
2018-03-29T13:27:44.127Z,7.57
2018-03-29T13:30:11.776Z,8.20
2018-03-29T13:32:39.501Z,8.03
2018-03-29T13:35:07.546Z,10.57
2018-03-29T13:37:35.258Z,9.40
2018-03-29T13:40:02.884Z,7.87
2018-03-29T13:42:30.909Z,8.43
2018-03-29T13:44:58.613Z,8.30
2018-03-29T13:47:26.641Z,7.10
2018-03-29T13:49:54.304Z,7.67
2018-03-29T13:52:22.022Z,8.07
2018-03-29T13:54:49.667Z,7.67
2018-03-29T13:57:17.324Z,8.00
2018-03-29T13:59:44.974Z,7.40
2018-03-29T14:02:12.626Z,8.47
2018-03-29T14:04:40.267Z,8.97
2018-03-29T14:07:07.927Z,7.77
2018-03-29T14:09:35.655Z,8.87
2018-03-29T14:12:03.680Z,8.33
2018-03-29T14:14:31.339Z,9.53
2018-03-29T14:16:59.080Z,9.47
2018-03-29T14:19:26.717Z,9.80
2018-03-29T14:21:54.769Z,9.83
2018-03-29T14:24:22.402Z,9.33
2018-03-29T14:26:50.108Z,16.07
2018-03-29T14:29:18.185Z,15.73
2018-03-29T14:31:46.240Z,14.23
2018-03-29T14:34:13.952Z,14.90
2018-03-29T14:36:41.633Z,14.07
2018-03-29T14:39:09.339Z,12.63
2018-03-29T14:41:37.008Z,13.30
2018-03-29T14:44:05.175Z,12.03
2018-03-29T14:46:33.249Z,11.87
2018-03-29T14:49:01.355Z,12.63
2018-03-29T14:51:29.085Z,11.73
2018-03-29T14:53:57.159Z,12.37
2018-03-29T14:56:25.226Z,12.70
2018-03-29T14:58:53.302Z,18.30
2018-03-29T15:01:21.382Z,12.00
2018-03-29T15:03:49.064Z,13.07
2018-03-29T15:06:16.812Z,12.27
2018-03-29T15:08:44.853Z,12.30
2018-03-29T15:11:12.517Z,12.23
2018-03-29T15:13:40.245Z,12.07
2018-03-29T15:16:07.888Z,13.93
2018-03-29T15:18:35.615Z,13.27
2018-03-29T15:21:03.693Z,13.47
2018-03-29T15:23:31.763Z,15.87
2018-03-29T15:25:59.946Z,14.43
2018-03-29T15:28:27.627Z,16.80
2018-03-29T15:30:55.307Z,14.93
2018-03-29T15:33:22.940Z,21.70
2018-03-29T15:35:50.603Z,19.60
2018-03-29T15:38:18.366Z,16.07
2018-03-29T15:40:46.054Z,16.53
2018-03-29T15:43:13.788Z,14.33
2018-03-29T15:45:41.867Z,15.90
2018-03-29T15:48:09.509Z,16.30
2018-03-29T15:50:37.562Z,29.80
2018-03-29T15:53:05.222Z,18.50
2018-03-29T15:55:32.864Z,16.43
2018-03-29T15:58:00.545Z,17.60
2018-03-29T16:00:28.198Z,16.33
2018-03-29T16:02:55.860Z,17.30
2018-03-29T16:05:23.561Z,16.07
2018-03-29T16:07:51.332Z,15.57
2018-03-29T16:10:18.978Z,18.83
2018-03-29T16:12:47.056Z,17.03
2018-03-29T16:15:14.713Z,17.07
2018-03-29T16:17:42.786Z,16.63
2018-03-29T16:20:10.856Z,24.00
2018-03-29T16:22:38.917Z,17.40
2018-03-29T16:25:06.634Z,18.33
2018-03-29T16:27:34.314Z,20.63
2018-03-29T16:30:01.970Z,20.57
2018-03-29T16:32:29.609Z,19.07
2018-03-29T16:34:57.294Z,18.13
2018-03-29T16:37:24.941Z,21.40
2018-03-29T16:39:52.599Z,21.37
2018-03-29T16:42:20.263Z,17.43
2018-03-29T16:44:47.916Z,20.73
2018-03-29T16:47:15.566Z,22.07
2018-03-29T16:49:43.257Z,18.33
2018-03-29T16:52:10.955Z,18.13
2018-03-29T16:54:38.644Z,21.90
2018-03-29T16:57:06.712Z,21.30
2018-03-29T16:59:34.784Z,16.53
2018-03-29T17:02:02.856Z,17.67
2018-03-29T17:04:30.939Z,18.40
2018-03-29T17:07:00.321Z,17.30
2018-03-29T17:09:28.001Z,18.13
2018-03-29T17:11:56.072Z,21.10
2018-03-29T17:14:24.115Z,20.30
2018-03-29T17:16:51.887Z,20.97
2018-03-29T17:19:19.524Z,19.00
2018-03-29T17:21:47.172Z,17.80
2018-03-29T17:24:14.822Z,18.10
2018-03-29T17:26:42.486Z,15.73
2018-03-29T17:29:10.144Z,22.73
2018-03-29T17:31:37.808Z,14.87
2018-03-29T17:34:05.506Z,16.77
2018-03-29T17:36:33.167Z,15.97
2018-03-29T17:39:00.826Z,13.43
2018-03-29T17:41:28.536Z,10.87
2018-03-29T17:43:56.258Z,11.60
2018-03-29T17:46:23.999Z,11.87
2018-03-29T17:48:51.804Z,9.90
2018-03-29T17:51:19.572Z,14.43
2018-03-29T17:53:47.262Z,10.40
2018-03-29T17:56:15.029Z,12.00
2018-03-29T17:58:42.706Z,13.77
2018-03-29T18:01:10.407Z,14.10
2018-03-29T18:03:38.635Z,15.93
2018-03-29T18:06:06.286Z,11.73
2018-03-29T18:08:34.016Z,13.60
2018-03-29T18:11:01.681Z,9.63
2018-03-29T18:13:29.769Z,10.70
2018-03-29T18:15:57.809Z,16.23
2018-03-29T18:18:25.971Z,9.60
2018-03-29T18:20:53.647Z,11.13
2018-03-29T18:23:21.332Z,14.37
2018-03-29T18:25:49.417Z,11.37
2018-03-29T18:28:17.541Z,13.93
2018-03-29T18:30:45.251Z,9.13
2018-03-29T18:33:12.979Z,8.67
2018-03-29T18:35:40.636Z,9.10
2018-03-29T18:38:08.426Z,9.27
2018-03-29T18:40:36.528Z,18.53
2018-03-29T18:43:04.264Z,8.03
2018-03-29T18:45:32.574Z,9.67
2018-03-29T18:48:00.474Z,7.80
2018-03-29T18:50:28.194Z,7.23
2018-03-29T18:52:55.904Z,7.40
2018-03-29T18:55:23.737Z,7.63
2018-03-29T18:57:51.395Z,6.97
2018-03-29T19:00:19.050Z,10.10
2018-03-29T19:02:46.714Z,7.60
2018-03-29T19:05:14.353Z,6.93
2018-03-29T19:07:42.394Z,8.27
2018-03-29T19:10:13.888Z,20.47
2018-03-29T19:12:41.924Z,9.10
2018-03-29T19:15:09.571Z,5.70
2018-03-29T19:17:37.252Z,5.93
2018-03-29T19:20:04.898Z,9.43
2018-03-29T19:22:32.626Z,8.67
2018-03-29T19:25:00.282Z,5.87
2018-03-29T19:27:27.970Z,6.37
2018-03-29T19:29:55.895Z,6.53
2018-03-29T19:32:23.956Z,7.43
2018-03-29T19:34:51.614Z,8.33
2018-03-29T19:37:19.660Z,8.50
2018-03-29T19:39:47.452Z,7.47
2018-03-29T19:42:15.505Z,7.80
2018-03-29T19:44:43.162Z,8.33
2018-03-29T19:47:10.829Z,6.57
2018-03-29T19:49:38.460Z,9.63
2018-03-29T19:52:06.110Z,8.80
2018-03-29T19:54:33.774Z,8.67
2018-03-29T19:57:01.494Z,9.43
2018-03-29T19:59:29.136Z,12.77
2018-03-29T20:01:57.210Z,13.93
2018-03-29T20:04:24.995Z,9.77
2018-03-29T20:06:53.096Z,11.90
2018-03-29T20:09:20.790Z,8.97
2018-03-29T20:11:48.436Z,10.83
2018-03-29T20:14:16.203Z,10.27
2018-03-29T20:16:44.050Z,16.37
2018-03-29T20:19:11.832Z,9.00
2018-03-29T20:21:40.612Z,15.60
2018-03-29T20:24:08.394Z,11.67
2018-03-29T20:26:36.364Z,8.97
2018-03-29T20:29:04.183Z,10.83
2018-03-29T20:31:32.301Z,10.53
2018-03-29T20:34:01.159Z,16.67
2018-03-29T20:36:30.320Z,16.33
2018-03-29T20:38:59.018Z,13.27
2018-03-29T20:41:27.198Z,12.67
2018-03-29T20:43:56.102Z,12.60
2018-03-29T20:46:25.093Z,10.30
2018-03-29T20:48:54.614Z,10.27
2018-03-29T20:51:22.836Z,11.27
2018-03-29T20:53:52.090Z,13.20
2018-03-29T20:56:21.455Z,19.90
2018-03-29T20:58:50.652Z,10.77
2018-03-29T21:01:19.674Z,17.80
2018-03-29T21:03:47.819Z,10.90
2018-03-29T21:06:16.554Z,10.30
2018-03-29T21:08:44.339Z,20.57
2018-03-29T21:11:13.529Z,10.53
2018-03-29T21:13:42.819Z,10.10
2018-03-29T21:16:11.627Z,11.60
2018-03-29T21:18:40.487Z,13.70
2018-03-29T21:21:09.466Z,9.80
2018-03-29T21:23:39.624Z,13.60
2018-03-29T21:26:08.594Z,10.47
2018-03-29T21:28:36.846Z,9.57
2018-03-29T21:31:05.082Z,17.83
2018-03-29T21:33:34.036Z,12.43
2018-03-29T21:36:02.379Z,16.23
2018-03-29T21:38:30.142Z,15.07
2018-03-29T21:40:58.747Z,11.00
2018-03-29T21:43:27.034Z,10.20
2018-03-29T21:45:54.796Z,12.30
2018-03-29T21:48:23.692Z,11.13
2018-03-29T21:50:52.892Z,12.60
2018-03-29T21:53:22.532Z,14.70
2018-03-29T21:55:51.381Z,22.80
2018-03-29T21:58:20.961Z,12.77
2018-03-29T22:00:49.671Z,13.77
2018-03-29T22:03:18.248Z,12.60
2018-03-29T22:05:46.290Z,17.13
2018-03-29T22:08:14.715Z,13.80
2018-03-29T22:10:43.074Z,17.67
2018-03-29T22:13:11.745Z,22.87
2018-03-29T22:15:41.403Z,15.57
2018-03-29T22:18:10.650Z,20.43
2018-03-29T22:20:38.829Z,12.43
2018-03-29T22:23:08.059Z,19.83
2018-03-29T22:25:36.342Z,15.90
2018-03-29T22:28:04.476Z,18.83
2018-03-29T22:30:34.447Z,15.50
2018-03-29T22:33:02.274Z,18.03
2018-03-29T22:35:30.449Z,17.67
2018-03-29T22:37:59.655Z,16.87
2018-03-29T22:40:28.539Z,19.07
2018-03-29T22:42:56.625Z,19.70
2018-03-29T22:45:24.314Z,18.90
2018-03-29T22:47:51.977Z,16.03
2018-03-29T22:50:19.634Z,15.03
2018-03-29T22:52:47.308Z,22.73
2018-03-29T22:55:14.965Z,20.43
2018-03-29T22:57:42.618Z,15.13
2018-03-29T23:00:10.305Z,17.17
2018-03-29T23:02:37.972Z,21.63
2018-03-29T23:05:05.642Z,20.37
2018-03-29T23:07:33.322Z,16.97
2018-03-29T23:10:01.413Z,13.50
2018-03-29T23:12:29.470Z,16.57
2018-03-29T23:14:57.541Z,17.27
2018-03-29T23:17:25.667Z,20.63
2018-03-29T23:19:53.343Z,16.20
2018-03-29T23:22:21.031Z,17.57
2018-03-29T23:24:48.693Z,19.20
2018-03-29T23:27:16.380Z,18.43
2018-03-29T23:29:44.451Z,28.67
2018-03-29T23:32:12.512Z,29.63
2018-03-29T23:34:40.838Z,22.60
2018-03-29T23:37:08.737Z,20.67
2018-03-29T23:39:37.127Z,27.17
2018-03-29T23:42:06.200Z,26.50
2018-03-29T23:44:34.010Z,16.00
2018-03-29T23:47:01.775Z,20.30
2018-03-29T23:49:29.811Z,21.57
2018-03-29T23:51:59.338Z,16.33
2018-03-29T23:54:27.491Z,15.50
2018-03-29T23:56:55.335Z,23.93
2018-03-29T23:59:23.532Z,16.97
